Time;durP1;ratioP1;P1;durP2;ratioP2;P2;SDS_P1;SDS_P2;PMS_P1;PMS_P2;Temp;Humidity;BMP_temperature;BMP_pressure;BME280_temperature;BME280_humidity;BME280_pressure;Samples;Min_cycle;Max_cycle;Signal;HPM_P1;HPM_P2
2022/10/05 00:00:52;;;;;;;;;;;12.70;84.50;;;;;;5057386;28;19909;-79
2022/10/05 00:03:19;;;;;;;;;;;12.70;84.60;;;;;;5055441;28;20365;-79
2022/10/05 00:05:45;;;;;;;;;;;12.70;84.50;;;;;;5056577;28;19913;-80
2022/10/05 00:08:16;;;;;;;;;;;12.70;84.40;;;;;;5056278;28;19916;-79
2022/10/05 00:10:42;;;;;;;;;;;12.70;84.60;;;;;;5055896;28;20052;-79
2022/10/05 00:13:12;;;;;;;;;;;12.70;84.40;;;;;;5058147;28;19916;-79
2022/10/05 00:15:38;;;;;;;;;;;12.70;84.80;;;;;;5058475;28;19909;-79
2022/10/05 00:18:18;;;;;;;;;;;12.70;84.80;;;;;;5056778;28;19912;-79
2022/10/05 00:20:44;;;;;;;;;;;12.70;84.60;;;;;;5056978;28;19912;-79
2022/10/05 00:23:17;;;;;;;;;;;12.70;84.70;;;;;;5056412;28;19990;-80
2022/10/05 00:25:43;;;;;;;;;;;12.70;84.80;;;;;;5056794;28;19916;-79
2022/10/05 00:28:22;;;;;;;;;;;12.70;84.90;;;;;;5056044;28;20008;-79
2022/10/05 00:30:48;;;;;;;;;;;12.70;85.00;;;;;;5057188;28;19919;-79
2022/10/05 00:33:13;;;;;;;;;;;12.60;85.00;;;;;;5057643;28;19944;-80
2022/10/05 00:35:40;;;;;;;;;;;12.70;84.70;;;;;;5058642;28;20296;-80
2022/10/05 00:38:06;;;;;;;;;;;12.70;85.00;;;;;;5060274;28;19909;-80
2022/10/05 00:40:40;;;;;;;;;;;12.70;85.00;;;;;;5063082;28;19913;-79
2022/10/05 00:43:29;;;;;;;;;;;12.70;85.10;;;;;;5063251;28;19908;-80
2022/10/05 00:45:58;;;;;;;;;;;12.60;85.10;;;;;;5023423;28;19917;-79
2022/10/05 00:48:24;;;;;;;;;;;12.70;85.10;;;;;;5046555;28;19940;-79
2022/10/05 00:50:50;;;;;;;;;;;12.70;85.00;;;;;;5045672;28;19909;-78
2022/10/05 00:53:34;;;;;;;;;;;12.70;85.20;;;;;;5048663;28;19913;-80
2022/10/05 00:56:19;;;;;;;;;;;12.60;85.20;;;;;;5050175;28;19912;-79
2022/10/05 00:58:54;;;;;;;;;;;12.70;85.00;;;;;;5044338;28;19951;-80
2022/10/05 01:01:24;;;;;;;;;;;12.70;85.00;;;;;;5048216;28;19919;-80
2022/10/05 01:03:53;;;;;;;;;;;12.60;85.30;;;;;;5049414;28;19919;-79
2022/10/05 01:06:42;;;;;;;;;;;12.60;85.40;;;;;;5044808;28;19913;-80
2022/10/05 01:09:21;;;;;;;;;;;12.60;85.60;;;;;;5050964;28;19913;-79
2022/10/05 01:12:03;;;;;;;;;;;12.60;85.60;;;;;;5058957;28;19920;-79
2022/10/05 01:14:29;;;;;;;;;;;12.60;85.80;;;;;;5042125;28;19913;-79
2022/10/05 01:17:00;;;;;;;;;;;12.60;85.90;;;;;;5035917;28;19916;-79
2022/10/05 01:19:32;;;;;;;;;;;12.60;85.80;;;;;;5044992;28;19917;-79
2022/10/05 01:22:11;;;;;;;;;;;12.60;85.60;;;;;;5050147;28;19921;-79
2022/10/05 01:24:42;;;;;;;;;;;12.60;85.90;;;;;;5047647;28;19928;-79
2022/10/05 01:27:18;;;;;;;;;;;12.60;85.80;;;;;;5046488;28;19913;-79
2022/10/05 01:29:48;;;;;;;;;;;12.60;85.80;;;;;;5045602;28;19974;-79
2022/10/05 01:32:22;;;;;;;;;;;12.60;85.80;;;;;;5045396;28;19921;-80
2022/10/05 01:34:57;;;;;;;;;;;12.60;85.80;;;;;;5053197;28;19952;-79
2022/10/05 01:37:26;;;;;;;;;;;12.60;86.00;;;;;;5059152;28;19908;-79
2022/10/05 01:40:00;;;;;;;;;;;12.60;85.80;;;;;;5058842;28;20284;-79
2022/10/05 01:42:26;;;;;;;;;;;12.60;86.10;;;;;;5058682;28;19923;-80
2022/10/05 01:45:21;;;;;;;;;;;12.60;86.20;;;;;;5059944;28;19913;-79
2022/10/05 01:47:50;;;;;;;;;;;12.60;86.10;;;;;;5045480;28;19909;-79
2022/10/05 01:50:28;;;;;;;;;;;12.60;86.10;;;;;;5057284;28;19909;-79
2022/10/05 01:53:11;;;;;;;;;;;12.60;86.50;;;;;;5061486;28;19909;-79
2022/10/05 01:55:43;;;;;;;;;;;12.60;86.30;;;;;;5061359;28;19908;-79
2022/10/05 01:58:27;;;;;;;;;;;12.60;86.40;;;;;;5060195;28;20607;-79
2022/10/05 02:01:03;;;;;;;;;;;12.60;86.00;;;;;;5062157;28;19962;-80
2022/10/05 02:03:32;;;;;;;;;;;12.60;86.10;;;;;;5061680;28;19915;-80
2022/10/05 02:06:03;;;;;;;;;;;12.60;86.20;;;;;;5061432;28;20011;-80
2022/10/05 02:08:33;;;;;;;;;;;12.60;86.40;;;;;;5068891;28;19908;-80
2022/10/05 02:11:01;;;;;;;;;;;12.60;86.50;;;;;;5063612;28;19909;-80
2022/10/05 02:13:31;;;;;;;;;;;12.60;86.40;;;;;;5061510;28;20462;-80
2022/10/05 02:15:58;;;;;;;;;;;12.70;86.40;;;;;;5061054;28;19909;-80
2022/10/05 02:18:27;;;;;;;;;;;12.70;86.50;;;;;;5059455;28;19927;-79
2022/10/05 02:20:53;;;;;;;;;;;12.70;86.50;;;;;;5061860;28;19909;-80
2022/10/05 02:23:25;;;;;;;;;;;12.70;86.40;;;;;;5061453;28;19920;-80
2022/10/05 02:25:51;;;;;;;;;;;12.70;86.30;;;;;;5062561;28;19913;-80
2022/10/05 02:28:20;;;;;;;;;;;12.70;86.40;;;;;;5065601;28;19909;-79
2022/10/05 02:30:49;;;;;;;;;;;12.70;86.60;;;;;;5066821;28;19935;-79
2022/10/05 02:33:23;;;;;;;;;;;12.70;86.60;;;;;;5061180;28;19913;-80
2022/10/05 02:35:49;;;;;;;;;;;12.70;86.60;;;;;;5064825;28;19959;-79
2022/10/05 02:38:24;;;;;;;;;;;12.60;86.50;;;;;;5063879;28;20317;-80
2022/10/05 02:40:55;;;;;;;;;;;12.60;86.80;;;;;;5058800;28;19967;-80
2022/10/05 02:43:40;;;;;;;;;;;12.70;86.90;;;;;;5055506;28;19970;-80
2022/10/05 02:46:17;;;;;;;;;;;12.60;86.70;;;;;;5054869;28;19923;-80
2022/10/05 02:48:43;;;;;;;;;;;12.60;86.80;;;;;;5055944;28;19909;-80
2022/10/05 02:51:15;;;;;;;;;;;12.60;87.00;;;;;;5055550;28;19913;-79
2022/10/05 02:53:40;;;;;;;;;;;12.60;86.90;;;;;;5056130;28;19920;-80
2022/10/05 02:56:15;;;;;;;;;;;12.60;86.70;;;;;;5056972;28;19909;-80
2022/10/05 02:58:57;;;;;;;;;;;12.60;87.10;;;;;;5056934;28;19955;-80
2022/10/05 03:01:34;;;;;;;;;;;12.70;86.80;;;;;;5056938;28;19981;-80
2022/10/05 03:04:06;;;;;;;;;;;12.70;86.60;;;;;;5057146;28;19939;-80
2022/10/05 03:06:33;;;;;;;;;;;12.70;86.80;;;;;;5054495;28;19913;-80
2022/10/05 03:09:04;;;;;;;;;;;12.60;87.00;;;;;;5057910;28;19913;-80
2022/10/05 03:11:29;;;;;;;;;;;12.60;87.00;;;;;;5058487;28;19935;-80
2022/10/05 03:14:04;;;;;;;;;;;12.60;86.90;;;;;;5059187;28;19913;-79
2022/10/05 03:16:38;;;;;;;;;;;12.70;87.10;;;;;;5059198;28;19997;-80
2022/10/05 03:19:19;;;;;;;;;;;12.60;86.90;;;;;;5059138;28;19920;-80
2022/10/05 03:22:03;;;;;;;;;;;12.60;86.90;;;;;;5057436;28;20031;-80
2022/10/05 03:24:47;;;;;;;;;;;12.50;87.10;;;;;;5057843;28;19920;-80
2022/10/05 03:27:21;;;;;;;;;;;12.50;86.90;;;;;;5056737;28;19944;-79
2022/10/05 03:29:56;;;;;;;;;;;12.50;86.90;;;;;;5054816;28;19921;-80
2022/10/05 03:32:21;;;;;;;;;;;12.50;86.90;;;;;;5054777;28;19952;-80
2022/10/05 03:34:57;;;;;;;;;;;12.50;87.00;;;;;;5058010;28;20388;-80
2022/10/05 03:37:46;;;;;;;;;;;12.50;87.10;;;;;;5056931;28;19913;-79
2022/10/05 03:40:24;;;;;;;;;;;12.50;87.20;;;;;;5048923;28;20002;-80
2022/10/05 03:43:01;;;;;;;;;;;12.50;87.10;;;;;;5056439;28;19979;-80
2022/10/05 03:45:36;;;;;;;;;;;12.50;87.20;;;;;;5055114;28;20008;-80
2022/10/05 03:48:05;;;;;;;;;;;12.50;87.20;;;;;;5056106;28;19916;-80
2022/10/05 03:50:36;;;;;;;;;;;12.50;87.30;;;;;;5054956;28;19940;-80
2022/10/05 03:53:05;;;;;;;;;;;12.50;87.30;;;;;;5054284;28;19967;-80
2022/10/05 03:55:40;;;;;;;;;;;12.50;87.30;;;;;;5054244;28;19913;-80
2022/10/05 03:58:11;;;;;;;;;;;12.50;87.30;;;;;;5035043;28;19909;-80
2022/10/05 04:00:37;;;;;;;;;;;12.50;87.50;;;;;;5036187;28;19916;-80
2022/10/05 04:03:05;;;;;;;;;;;12.40;87.50;;;;;;5036633;28;20277;-80
2022/10/05 04:05:34;;;;;;;;;;;12.50;87.60;;;;;;5034530;28;19913;-80
2022/10/05 04:08:12;;;;;;;;;;;12.50;87.60;;;;;;5036212;28;20456;-80
2022/10/05 04:10:43;;;;;;;;;;;12.50;87.40;;;;;;5049595;28;19962;-80
2022/10/05 04:13:11;;;;;;;;;;;12.50;87.50;;;;;;5055496;28;19913;-80
2022/10/05 04:15:42;;;;;;;;;;;12.40;87.60;;;;;;5054446;28;19986;-80
2022/10/05 04:18:13;;;;;;;;;;;12.40;87.70;;;;;;5053783;28;19920;-80
2022/10/05 04:20:51;;;;;;;;;;;12.40;87.70;;;;;;5055705;28;19994;-80
2022/10/05 04:23:38;;;;;;;;;;;12.50;87.70;;;;;;5077519;22;20354;-81
2022/10/05 04:26:06;;;;;;;;;;;12.50;87.70;;;;;;5047621;28;19917;-81
2022/10/05 04:28:32;;;;;;;;;;;12.50;87.60;;;;;;5037590;28;19963;-81
2022/10/05 04:30:59;;;;;;;;;;;12.40;87.70;;;;;;5038293;28;19909;-81
2022/10/05 04:33:26;;;;;;;;;;;12.50;87.80;;;;;;5025697;28;19948;-81
2022/10/05 04:35:58;;;;;;;;;;;12.50;87.50;;;;;;5019297;28;19913;-81
2022/10/05 04:38:38;;;;;;;;;;;12.50;87.30;;;;;;5035904;28;19926;-81
2022/10/05 04:41:10;;;;;;;;;;;12.50;87.30;;;;;;5036761;28;19913;-81
2022/10/05 04:43:53;;;;;;;;;;;12.60;86.90;;;;;;5037302;28;19932;-81
2022/10/05 04:46:28;;;;;;;;;;;12.60;86.80;;;;;;5037549;28;19913;-82
2022/10/05 04:49:17;;;;;;;;;;;12.70;86.10;;;;;;5039534;28;19982;-81
2022/10/05 04:52:03;;;;;;;;;;;12.70;85.80;;;;;;5048653;28;19963;-81
2022/10/05 04:54:39;;;;;;;;;;;12.70;86.10;;;;;;5049322;28;19963;-81
2022/10/05 04:57:09;;;;;;;;;;;12.70;86.00;;;;;;5048844;28;19913;-81
2022/10/05 04:59:45;;;;;;;;;;;12.80;85.70;;;;;;5044607;28;20303;-82
2022/10/05 05:02:25;;;;;;;;;;;12.80;85.60;;;;;;5037856;28;19917;-81
2022/10/05 05:05:06;;;;;;;;;;;12.80;85.50;;;;;;5038402;28;19966;-81
2022/10/05 05:07:32;;;;;;;;;;;12.80;85.80;;;;;;5037677;28;19952;-81
2022/10/05 05:10:07;;;;;;;;;;;12.90;85.60;;;;;;5040541;28;19916;-81
2022/10/05 05:12:52;;;;;;;;;;;12.90;85.30;;;;;;5038670;28;19975;-81
2022/10/05 05:15:27;;;;;;;;;;;13.10;85.00;;;;;;5039638;28;19905;-81
2022/10/05 05:18:01;;;;;;;;;;;13.10;84.90;;;;;;5039669;28;19909;-81
2022/10/05 05:20:35;;;;;;;;;;;13.10;84.60;;;;;;5038773;28;19913;-81
2022/10/05 05:23:19;;;;;;;;;;;13.20;84.00;;;;;;5039044;28;19944;-81
2022/10/05 05:25:45;;;;;;;;;;;13.10;84.20;;;;;;5038797;28;19913;-82
2022/10/05 05:28:10;;;;;;;;;;;13.10;84.60;;;;;;5048445;28;19945;-81
2022/10/05 05:30:41;;;;;;;;;;;13.10;84.50;;;;;;5032809;28;19913;-81
2022/10/05 05:33:13;;;;;;;;;;;13.10;84.50;;;;;;5026114;28;19916;-81
2022/10/05 05:35:38;;;;;;;;;;;13.10;84.50;;;;;;5030383;28;19913;-81
2022/10/05 05:38:22;;;;;;;;;;;13.10;84.10;;;;;;5029805;28;19918;-81
2022/10/05 05:40:56;;;;;;;;;;;13.20;84.30;;;;;;5021090;28;19917;-81
2022/10/05 05:43:40;;;;;;;;;;;13.10;84.30;;;;;;5023156;28;19910;-81
2022/10/05 05:46:11;;;;;;;;;;;13.10;84.40;;;;;;5037697;28;19913;-82
2022/10/05 05:48:38;;;;;;;;;;;13.10;84.70;;;;;;5050965;28;19968;-82
2022/10/05 05:51:16;;;;;;;;;;;13.10;84.40;;;;;;5041907;28;19944;-81
2022/10/05 05:53:42;;;;;;;;;;;13.20;84.20;;;;;;5039762;28;19910;-82
2022/10/05 05:56:07;;;;;;;;;;;13.20;84.00;;;;;;5040549;28;19909;-81
2022/10/05 05:58:37;;;;;;;;;;;13.20;84.10;;;;;;5038299;28;19996;-80
2022/10/05 06:01:06;;;;;;;;;;;13.30;83.70;;;;;;5029234;28;19913;-81
2022/10/05 06:04:01;;;;;;;;;;;13.30;84.00;;;;;;5025278;28;19913;-81
2022/10/05 06:06:30;;;;;;;;;;;13.50;83.70;;;;;;4996339;28;20018;-81
2022/10/05 06:08:56;;;;;;;;;;;13.40;84.10;;;;;;5019979;28;19952;-81
2022/10/05 06:11:24;;;;;;;;;;;13.60;83.00;;;;;;5026870;28;19978;-81
2022/10/05 06:13:50;;;;;;;;;;;13.50;83.40;;;;;;5032163;28;19972;-81
2022/10/05 06:16:37;;;;;;;;;;;13.50;83.70;;;;;;5023767;28;19916;-81
2022/10/05 06:19:17;;;;;;;;;;;13.50;83.30;;;;;;5031754;28;20408;-81
2022/10/05 06:22:01;;;;;;;;;;;13.60;83.40;;;;;;5036973;28;19913;-81
2022/10/05 06:24:29;;;;;;;;;;;13.60;83.10;;;;;;5036466;28;20330;-81
2022/10/05 06:26:54;;;;;;;;;;;13.70;82.90;;;;;;5036612;28;19909;-81
2022/10/05 06:29:22;;;;;;;;;;;13.70;82.90;;;;;;5033893;28;19916;-80
2022/10/05 06:32:03;;;;;;;;;;;13.70;82.90;;;;;;5035127;28;20020;-81
2022/10/05 06:34:28;;;;;;;;;;;13.70;82.90;;;;;;5033982;28;20375;-81
2022/10/05 06:37:03;;;;;;;;;;;13.80;83.10;;;;;;5032436;28;19975;-81
2022/10/05 06:39:43;;;;;;;;;;;13.90;82.50;;;;;;5023763;28;20004;-81
2022/10/05 06:42:19;;;;;;;;;;;14.10;82.40;;;;;;5027406;28;19971;-81
2022/10/05 06:44:59;;;;;;;;;;;14.00;82.30;;;;;;5012998;28;19918;-81
2022/10/05 06:47:24;;;;;;;;;;;14.10;82.00;;;;;;5022863;28;19913;-81
2022/10/05 06:50:10;;;;;;;;;;;14.10;81.90;;;;;;5034903;28;19956;-81
2022/10/05 06:52:54;;;;;;;;;;;14.10;81.80;;;;;;5025749;28;19917;-82
2022/10/05 06:55:26;;;;;;;;;;;14.20;81.60;;;;;;5020909;28;19920;-83
2022/10/05 06:57:57;;;;;;;;;;;14.20;81.90;;;;;;5018081;28;19914;-83
2022/10/05 07:00:24;;;;;;;;;;;14.30;81.70;;;;;;5024589;28;19917;-81
2022/10/05 07:03:01;;;;;;;;;;;14.40;81.40;;;;;;5026935;28;19917;-81
2022/10/05 07:05:40;;;;;;;;;;;14.40;81.20;;;;;;5030770;28;20078;-81
2022/10/05 07:08:10;;;;;;;;;;;14.50;80.60;;;;;;5034984;28;20241;-83
2022/10/05 07:10:44;;;;;;;;;;;14.60;80.30;;;;;;5040875;28;19929;-84
2022/10/05 07:13:23;;;;;;;;;;;14.70;79.90;;;;;;5037238;28;19920;-84
2022/10/05 07:15:57;;;;;;;;;;;14.80;79.60;;;;;;5028270;28;19921;-84
2022/10/05 07:18:43;;;;;;;;;;;14.90;78.90;;;;;;5029285;28;20055;-83
2022/10/05 07:21:33;;;;;;;;;;;14.90;78.70;;;;;;5018679;28;19913;-84
2022/10/05 07:24:19;;;;;;;;;;;14.90;78.90;;;;;;5024546;28;19949;-83
2022/10/05 07:26:45;;;;;;;;;;;15.00;78.50;;;;;;5024037;28;20016;-84
2022/10/05 07:29:29;;;;;;;;;;;15.00;78.30;;;;;;5026662;28;19946;-84
2022/10/05 07:32:03;;;;;;;;;;;15.10;78.20;;;;;;5014888;28;19910;-83
2022/10/05 07:34:29;;;;;;;;;;;15.10;78.30;;;;;;5021589;28;19913;-84
2022/10/05 07:39:47;;;;;;;;;;;15.10;77.80;;;;;;5030625;28;20454;-86
2022/10/05 07:42:29;;;;;;;;;;;15.10;77.60;;;;;;5021201;28;19956;-82
2022/10/05 07:45:04;;;;;;;;;;;15.10;77.40;;;;;;5029290;28;19970;-82
2022/10/05 07:47:35;;;;;;;;;;;15.10;77.60;;;;;;5020589;28;20368;-81
2022/10/05 07:50:07;;;;;;;;;;;15.20;77.40;;;;;;5025824;28;19913;-81
2022/10/05 07:52:35;;;;;;;;;;;15.20;77.30;;;;;;5023327;28;19913;-82
2022/10/05 07:55:03;;;;;;;;;;;15.10;77.60;;;;;;5019510;28;19931;-82
2022/10/05 07:57:34;;;;;;;;;;;15.20;77.50;;;;;;5032616;28;19909;-81
2022/10/05 08:00:13;;;;;;;;;;;15.20;77.40;;;;;;5032291;28;19917;-82
2022/10/05 08:02:44;;;;;;;;;;;15.20;77.40;;;;;;5025029;28;19913;-81
2022/10/05 08:05:27;;;;;;;;;;;15.20;77.00;;;;;;5032446;28;19917;-84
2022/10/05 08:08:03;;;;;;;;;;;15.30;77.10;;;;;;5018090;28;19909;-84
2022/10/05 08:10:32;;;;;;;;;;;15.30;76.80;;;;;;5034018;28;19913;-83
2022/10/05 08:13:10;;;;;;;;;;;15.40;76.80;;;;;;5035994;28;19913;-83
2022/10/05 08:15:44;;;;;;;;;;;15.50;76.30;;;;;;5037661;28;19910;-83
2022/10/05 08:18:10;;;;;;;;;;;15.40;76.60;;;;;;5037457;28;19916;-84
2022/10/05 08:20:53;;;;;;;;;;;15.40;76.30;;;;;;5038679;28;20275;-84
2022/10/05 08:23:37;;;;;;;;;;;15.50;76.50;;;;;;5035882;28;19940;-84
2022/10/05 08:26:14;;;;;;;;;;;15.50;76.30;;;;;;5038042;28;20031;-84
2022/10/05 08:29:05;;;;;;;;;;;15.50;76.30;;;;;;5035041;28;20389;-84
2022/10/05 08:31:32;;;;;;;;;;;15.50;76.20;;;;;;5002582;28;19932;-84
2022/10/05 08:34:19;;;;;;;;;;;15.50;76.70;;;;;;5036184;28;20405;-85
2022/10/05 08:36:54;;;;;;;;;;;15.60;76.30;;;;;;5039038;28;20316;-85
2022/10/05 08:39:23;;;;;;;;;;;15.70;75.80;;;;;;5035500;28;20398;-84
2022/10/05 08:41:48;;;;;;;;;;;15.70;75.60;;;;;;5034167;28;20283;-84
2022/10/05 08:44:32;;;;;;;;;;;15.70;75.50;;;;;;5047970;28;19921;-84
2022/10/05 08:47:08;;;;;;;;;;;15.70;75.70;;;;;;5036445;28;19925;-84
2022/10/05 08:49:52;;;;;;;;;;;15.80;75.60;;;;;;5036192;28;19919;-84
2022/10/05 08:52:27;;;;;;;;;;;15.80;75.30;;;;;;5036694;28;19992;-84
2022/10/05 08:55:08;;;;;;;;;;;15.90;75.20;;;;;;5029730;28;20134;-85
2022/10/05 08:57:33;;;;;;;;;;;15.90;74.90;;;;;;5033953;28;20007;-81
2022/10/05 09:00:06;;;;;;;;;;;16.00;75.00;;;;;;5025876;28;19986;-84
2022/10/05 09:02:41;;;;;;;;;;;16.10;74.80;;;;;;5046316;28;19924;-84
2022/10/05 09:05:09;;;;;;;;;;;16.10;74.70;;;;;;5021179;28;20284;-83
2022/10/05 09:07:35;;;;;;;;;;;16.00;74.30;;;;;;5020874;28;20389;-85
2022/10/05 09:10:00;;;;;;;;;;;16.10;74.20;;;;;;5017419;28;19921;-83
2022/10/05 09:12:38;;;;;;;;;;;16.10;74.60;;;;;;5023455;28;19913;-83
2022/10/05 09:15:12;;;;;;;;;;;16.20;74.50;;;;;;5019859;28;19924;-83
2022/10/05 09:18:01;;;;;;;;;;;16.30;74.30;;;;;;5022251;28;19909;-83
2022/10/05 09:20:37;;;;;;;;;;;16.30;74.00;;;;;;5025828;28;19996;-83
2022/10/05 09:23:12;;;;;;;;;;;16.30;74.10;;;;;;5011754;28;20052;-83
2022/10/05 09:25:49;;;;;;;;;;;16.40;73.80;;;;;;5024006;28;20379;-82
2022/10/05 09:28:30;;;;;;;;;;;16.40;73.40;;;;;;5021659;28;20040;-83
2022/10/05 09:30:57;;;;;;;;;;;16.50;73.40;;;;;;5039103;28;20444;-84
2022/10/05 09:33:28;;;;;;;;;;;16.40;73.30;;;;;;5047968;28;19944;-83
2022/10/05 09:36:11;;;;;;;;;;;16.40;74.00;;;;;;5031037;28;19916;-83
2022/10/05 09:38:53;;;;;;;;;;;16.50;74.10;;;;;;5025621;28;19942;-83
2022/10/05 09:41:30;;;;;;;;;;;16.50;74.00;;;;;;5029563;28;19909;-84
2022/10/05 09:44:05;;;;;;;;;;;16.70;72.70;;;;;;5029141;28;20445;-84
2022/10/05 09:46:31;;;;;;;;;;;16.70;72.20;;;;;;5025291;28;19960;-82
2022/10/05 09:49:07;;;;;;;;;;;16.70;72.40;;;;;;5028557;28;19986;-82
2022/10/05 09:51:51;;;;;;;;;;;16.80;72.70;;;;;;5030967;28;19923;-83
2022/10/05 09:54:44;;;;;;;;;;;16.90;72.00;;;;;;5032049;28;20418;-83
2022/10/05 09:57:21;;;;;;;;;;;16.90;71.60;;;;;;5035544;28;20331;-83
2022/10/05 10:00:06;;;;;;;;;;;16.90;72.00;;;;;;5036946;28;19917;-80
2022/10/05 10:02:43;;;;;;;;;;;17.00;71.70;;;;;;5036887;28;19920;-83
2022/10/05 10:05:28;;;;;;;;;;;17.10;71.40;;;;;;5037595;28;19928;-83
2022/10/05 10:08:03;;;;;;;;;;;17.10;71.50;;;;;;5036029;28;19909;-76
2022/10/05 10:10:34;;;;;;;;;;;17.10;70.90;;;;;;5035149;28;20382;-85
2022/10/05 10:13:19;;;;;;;;;;;17.10;70.90;;;;;;5033912;28;19914;-85
2022/10/05 10:16:03;;;;;;;;;;;17.10;71.40;;;;;;5034505;28;20013;-85
2022/10/05 10:18:37;;;;;;;;;;;17.20;70.80;;;;;;5027699;28;19969;-84
2022/10/05 10:21:03;;;;;;;;;;;17.10;71.20;;;;;;5033469;28;20347;-84
2022/10/05 10:23:47;;;;;;;;;;;17.30;71.40;;;;;;4849391;22;19936;-84
2022/10/05 10:26:41;;;;;;;;;;;17.40;71.60;;;;;;5087234;28;19947;-83
2022/10/05 10:29:15;;;;;;;;;;;17.50;70.60;;;;;;5085063;28;19915;-82
2022/10/05 10:31:52;;;;;;;;;;;17.50;69.90;;;;;;5086904;28;19931;-83
2022/10/05 10:34:27;;;;;;;;;;;17.50;70.00;;;;;;5075812;28;19915;-83
2022/10/05 10:37:09;;;;;;;;;;;17.30;70.90;;;;;;5066876;28;19909;-82
2022/10/05 10:39:47;;;;;;;;;;;17.60;70.90;;;;;;5066442;28;19955;-85
2022/10/05 10:42:12;;;;;;;;;;;17.60;69.90;;;;;;5068358;28;19919;-86
2022/10/05 10:44:46;;;;;;;;;;;17.50;69.80;;;;;;5067040;28;20374;-84
2022/10/05 10:47:22;;;;;;;;;;;17.60;69.70;;;;;;5065760;28;19966;-85
2022/10/05 10:50:07;;;;;;;;;;;17.60;69.60;;;;;;5063465;28;19915;-85
2022/10/05 10:52:42;;;;;;;;;;;17.60;69.30;;;;;;5066485;28;19923;-85
2022/10/05 10:55:26;;;;;;;;;;;17.60;69.80;;;;;;5065503;28;20445;-85
2022/10/05 10:58:01;;;;;;;;;;;17.80;69.10;;;;;;5058909;28;19920;-84
2022/10/05 11:00:30;;;;;;;;;;;17.60;69.20;;;;;;5061921;28;19924;-86
2022/10/05 11:02:55;;;;;;;;;;;17.70;69.20;;;;;;5064498;28;19955;-85
2022/10/05 11:05:24;;;;;;;;;;;17.80;69.00;;;;;;5063989;28;19917;-86
2022/10/05 11:07:56;;;;;;;;;;;17.80;68.40;;;;;;5063570;28;19909;-85
2022/10/05 11:10:35;;;;;;;;;;;17.80;68.60;;;;;;5060628;28;19920;-82
2022/10/05 11:13:15;;;;;;;;;;;17.80;69.10;;;;;;5059095;28;20272;-83
2022/10/05 11:16:00;;;;;;;;;;;17.80;69.20;;;;;;5051087;28;19920;-84
2022/10/05 11:18:28;;;;;;;;;;;17.90;68.50;;;;;;5073874;28;19925;-84
2022/10/05 11:20:54;;;;;;;;;;;17.90;68.40;;;;;;5053017;28;20386;-84
2022/10/05 11:23:39;;;;;;;;;;;17.90;69.20;;;;;;5057194;28;19931;-84
2022/10/05 11:26:23;;;;;;;;;;;17.80;68.80;;;;;;5042389;28;20316;-84
2022/10/05 11:29:01;;;;;;;;;;;17.90;69.00;;;;;;5054643;28;19998;-82
2022/10/05 11:31:36;;;;;;;;;;;17.90;68.40;;;;;;5060517;28;20327;-83
2022/10/05 11:34:08;;;;;;;;;;;17.90;68.60;;;;;;5062752;28;19974;-83
2022/10/05 11:36:46;;;;;;;;;;;18.00;68.50;;;;;;5063555;28;19916;-81
2022/10/05 11:39:23;;;;;;;;;;;17.90;68.40;;;;;;5055609;28;19909;-81
2022/10/05 11:42:07;;;;;;;;;;;17.90;68.30;;;;;;5047994;28;19912;-82
2022/10/05 11:44:52;;;;;;;;;;;18.00;68.60;;;;;;5051781;28;20294;-82
2022/10/05 11:47:26;;;;;;;;;;;17.90;69.00;;;;;;5056423;28;20476;-82
2022/10/05 11:49:58;;;;;;;;;;;17.80;69.20;;;;;;5053936;28;20394;-83
2022/10/05 11:52:34;;;;;;;;;;;17.80;69.10;;;;;;5050891;28;19917;-82
2022/10/05 11:55:13;;;;;;;;;;;17.80;69.60;;;;;;5050979;28;20013;-80
2022/10/05 11:57:45;;;;;;;;;;;17.90;69.70;;;;;;5049324;28;19920;-83
2022/10/05 12:00:14;;;;;;;;;;;17.90;69.20;;;;;;5043445;28;20375;-80
2022/10/05 12:02:43;;;;;;;;;;;18.00;68.90;;;;;;5042762;28;19920;-80
2022/10/05 12:05:24;;;;;;;;;;;18.00;69.00;;;;;;5044373;28;19924;-80
2022/10/05 12:07:55;;;;;;;;;;;18.00;69.30;;;;;;5045172;28;20359;-82
2022/10/05 12:10:31;;;;;;;;;;;18.00;68.70;;;;;;5042271;28;20194;-84
2022/10/05 12:13:07;;;;;;;;;;;18.00;68.50;;;;;;5046606;28;20382;-83
2022/10/05 12:15:46;;;;;;;;;;;18.10;67.70;;;;;;5058043;28;19916;-82
2022/10/05 12:18:15;;;;;;;;;;;18.10;67.40;;;;;;5046773;28;19921;-85
2022/10/05 12:21:07;;;;;;;;;;;18.10;67.90;;;;;;5036386;28;19909;-83
2022/10/05 12:23:54;;;;;;;;;;;18.10;68.10;;;;;;5032532;28;20375;-83
2022/10/05 12:26:23;;;;;;;;;;;18.30;67.90;;;;;;5054664;28;19913;-84
2022/10/05 12:28:51;;;;;;;;;;;18.20;68.20;;;;;;5047415;28;19959;-84
2022/10/05 12:31:35;;;;;;;;;;;18.20;68.30;;;;;;5053480;28;19986;-82
2022/10/05 12:34:04;;;;;;;;;;;18.30;68.90;;;;;;5041582;28;19962;-83
2022/10/05 12:36:36;;;;;;;;;;;18.30;70.00;;;;;;5055829;28;19920;-84
2022/10/05 12:39:07;;;;;;;;;;;18.30;68.70;;;;;;5049794;28;19966;-84
2022/10/05 12:41:44;;;;;;;;;;;18.50;68.10;;;;;;5046645;28;19917;-83
2022/10/05 12:44:13;;;;;;;;;;;18.50;68.00;;;;;;5038035;28;19913;-83
2022/10/05 12:46:57;;;;;;;;;;;18.60;68.00;;;;;;5040812;28;19913;-84
2022/10/05 12:49:49;;;;;;;;;;;18.50;68.60;;;;;;5048276;28;21254;-87
2022/10/05 12:52:26;;;;;;;;;;;18.50;68.70;;;;;;5038659;28;19939;-84
2022/10/05 12:55:12;;;;;;;;;;;18.50;69.50;;;;;;5047454;28;19913;-83
2022/10/05 12:57:56;;;;;;;;;;;18.40;69.90;;;;;;5015206;28;19928;-88
2022/10/05 13:00:22;;;;;;;;;;;18.30;70.00;;;;;;5024857;28;19955;-83
2022/10/05 13:02:49;;;;;;;;;;;18.50;68.90;;;;;;5002504;28;20434;-87
2022/10/05 13:05:21;;;;;;;;;;;18.60;68.40;;;;;;5013854;28;19913;-85
2022/10/05 13:08:16;;;;;;;;;;;18.50;70.00;;;;;;5024590;28;20476;-83
2022/10/05 13:10:42;;;;;;;;;;;18.60;69.50;;;;;;5006297;28;19944;-84
2022/10/05 13:13:27;;;;;;;;;;;18.70;69.80;;;;;;5013379;28;20318;-87
2022/10/05 13:16:31;;;;;;;;;;;18.60;70.10;;;;;;5020593;28;20114;-87
2022/10/05 13:18:59;;;;;;;;;;;18.70;68.70;;;;;;5003546;28;20635;-85
2022/10/05 13:21:44;;;;;;;;;;;18.60;68.70;;;;;;5024664;28;19908;-85
2022/10/05 13:24:29;;;;;;;;;;;18.80;68.50;;;;;;5014640;28;19970;-84
2022/10/05 13:27:34;;;;;;;;;;;18.90;68.10;;;;;;5015690;28;19909;-85
2022/10/05 13:30:14;;;;;;;;;;;19.10;67.00;;;;;;5016116;28;19940;-86
2022/10/05 13:35:39;;;;;;;;;;;19.20;67.20;;;;;;5052645;22;20143;-85
2022/10/05 13:38:38;;;;;;;;;;;19.20;66.70;;;;;;5044819;28;19973;-84
2022/10/05 13:41:35;;;;;;;;;;;;;;;;;;;;;
2022/10/05 13:44:15;;;;;;;;;;;19.50;65.20;;;;;;5040593;28;20065;-87
2022/10/05 13:46:48;;;;;;;;;;;19.50;64.10;;;;;;5058398;28;20007;-85
2022/10/05 13:49:19;;;;;;;;;;;19.60;63.20;;;;;;5059092;28;19912;-85
2022/10/05 13:52:06;;;;;;;;;;;19.60;62.80;;;;;;5056991;28;20381;-88
2022/10/05 13:54:38;;;;;;;;;;;19.60;63.20;;;;;;5064789;28;19912;-86
2022/10/05 13:57:09;;;;;;;;;;;19.50;64.30;;;;;;5062374;28;20187;-84
2022/10/05 13:59:40;;;;;;;;;;;19.40;65.70;;;;;;5056471;28;20058;-85
2022/10/05 14:02:08;;;;;;;;;;;19.40;65.70;;;;;;5059593;28;19970;-87
2022/10/05 14:04:48;;;;;;;;;;;19.30;65.90;;;;;;5092763;28;20007;-85
2022/10/05 14:10:59;;;;;;;;;;;19.20;67.40;;;;;;5014038;28;20044;-88
2022/10/05 14:13:30;;;;;;;;;;;19.30;65.40;;;;;;5012772;28;20331;-87
2022/10/05 14:19:59;;;;;;;;;;;;;;;;;;;;;
2022/10/05 14:25:18;;;;;;;;;;;19.50;64.90;;;;;;5041589;22;20079;-87
2022/10/05 14:27:46;;;;;;;;;;;19.60;64.30;;;;;;4998400;28;19921;-84
2022/10/05 14:30:20;;;;;;;;;;;19.60;64.10;;;;;;4988625;28;19913;-84
2022/10/05 14:33:05;;;;;;;;;;;19.70;63.40;;;;;;4982313;28;19948;-84
2022/10/05 14:35:47;;;;;;;;;;;19.70;63.70;;;;;;4995981;28;20389;-86
2022/10/05 14:38:21;;;;;;;;;;;19.60;63.60;;;;;;4993001;28;20012;-89
2022/10/05 14:41:05;;;;;;;;;;;19.50;63.60;;;;;;4992483;28;19910;-87
2022/10/05 14:43:31;;;;;;;;;;;19.40;64.50;;;;;;4969617;28;19910;-83
2022/10/05 14:46:15;;;;;;;;;;;19.40;64.70;;;;;;4983913;28;19961;-83
2022/10/05 14:48:41;;;;;;;;;;;19.50;64.70;;;;;;4953040;28;20459;-82
2022/10/05 14:51:11;;;;;;;;;;;19.50;64.30;;;;;;4960349;28;20041;-82
2022/10/05 14:53:37;;;;;;;;;;;19.50;63.90;;;;;;4951524;28;19960;-83
2022/10/05 14:56:02;;;;;;;;;;;19.50;63.30;;;;;;4957763;28;20222;-82
2022/10/05 14:58:47;;;;;;;;;;;19.60;63.80;;;;;;4957547;28;19913;-83
2022/10/05 15:01:16;;;;;;;;;;;19.50;64.30;;;;;;4952734;28;20021;-86
2022/10/05 15:03:53;;;;;;;;;;;19.60;63.80;;;;;;4957017;28;20028;-83
2022/10/05 15:06:21;;;;;;;;;;;19.50;63.70;;;;;;4982137;28;19983;-86
2022/10/05 15:09:01;;;;;;;;;;;19.60;63.60;;;;;;4974657;28;19956;-83
2022/10/05 15:11:30;;;;;;;;;;;19.50;64.10;;;;;;4969148;28;19920;-82
2022/10/05 15:14:06;;;;;;;;;;;19.60;64.10;;;;;;4948223;28;20202;-86
2022/10/05 15:16:33;;;;;;;;;;;19.50;64.20;;;;;;4931013;28;20088;-86
2022/10/05 15:19:06;;;;;;;;;;;19.40;64.70;;;;;;4923230;28;19945;-86